createdAt,value
2023-04-26T00:00:31.332Z,3.00
2023-04-26T00:02:59.977Z,3.00
2023-04-26T00:05:28.105Z,2.90
2023-04-26T00:07:54.882Z,3.00
2023-04-26T00:10:21.596Z,2.90
2023-04-26T00:12:48.190Z,2.90
2023-04-26T00:15:14.804Z,2.80
2023-04-26T00:17:42.683Z,2.80
2023-04-26T00:20:13.204Z,2.80
2023-04-26T00:22:40.498Z,2.70
2023-04-26T00:25:07.526Z,2.60
2023-04-26T00:27:34.233Z,2.60
2023-04-26T00:30:01.023Z,2.60
2023-04-26T00:32:28.096Z,2.70
2023-04-26T00:34:54.793Z,2.70
2023-04-26T00:37:21.885Z,2.80
2023-04-26T00:39:49.060Z,2.70
2023-04-26T00:42:15.773Z,2.60
2023-04-26T00:44:43.036Z,2.50
2023-04-26T00:47:09.716Z,2.60
2023-04-26T00:49:36.850Z,2.60
2023-04-26T00:52:03.895Z,2.60
2023-04-26T00:54:30.686Z,2.50
2023-04-26T00:56:57.896Z,2.50
2023-04-26T00:59:26.166Z,2.50
2023-04-26T01:01:53.154Z,2.50
2023-04-26T01:04:19.950Z,2.60
2023-04-26T01:06:47.106Z,2.60
2023-04-26T01:09:15.262Z,2.70
2023-04-26T01:11:43.442Z,2.60
2023-04-26T01:14:10.835Z,2.70
2023-04-26T01:16:38.561Z,2.60
2023-04-26T01:19:12.979Z,2.60
2023-04-26T01:21:40.389Z,2.60
2023-04-26T01:24:09.178Z,2.60
2023-04-26T01:26:47.912Z,2.60
2023-04-26T01:29:19.335Z,2.60
2023-04-26T01:31:47.420Z,2.50
2023-04-26T01:34:14.683Z,2.40
2023-04-26T01:36:44.275Z,2.30
2023-04-26T01:39:10.878Z,2.20
2023-04-26T01:41:37.691Z,2.10
2023-04-26T01:44:04.613Z,2.00
2023-04-26T01:46:31.403Z,2.00
2023-04-26T01:48:58.152Z,1.90
2023-04-26T01:51:24.840Z,1.90
2023-04-26T01:53:51.542Z,1.80
2023-04-26T01:56:19.014Z,1.80
2023-04-26T01:58:45.763Z,1.70
2023-04-26T02:01:12.445Z,1.70
2023-04-26T02:03:39.173Z,1.70
2023-04-26T02:06:05.996Z,1.60
2023-04-26T02:08:32.681Z,1.60
2023-04-26T02:10:59.506Z,1.60
2023-04-26T02:13:27.217Z,1.60
2023-04-26T02:15:54.658Z,1.50
2023-04-26T02:18:22.478Z,1.40
2023-04-26T02:20:50.305Z,1.40
2023-04-26T02:23:17.254Z,1.30
2023-04-26T02:25:47.396Z,1.20
2023-04-26T02:28:15.972Z,1.10
2023-04-26T02:30:43.041Z,1.10
2023-04-26T02:33:09.867Z,1.20
2023-04-26T02:35:37.274Z,1.00
2023-04-26T02:38:05.387Z,0.90
2023-04-26T02:40:32.147Z,1.00
2023-04-26T02:42:59.176Z,0.90
2023-04-26T02:45:26.147Z,0.90
2023-04-26T02:47:53.208Z,0.80
2023-04-26T02:50:20.259Z,0.80
2023-04-26T02:52:47.942Z,0.70
2023-04-26T02:55:14.618Z,0.60
2023-04-26T02:57:41.240Z,0.60
2023-04-26T03:00:08.649Z,0.50
2023-04-26T03:02:36.418Z,0.50
2023-04-26T03:05:03.632Z,0.50
2023-04-26T03:07:31.396Z,0.50
2023-04-26T03:09:58.091Z,0.50
2023-04-26T03:12:24.797Z,0.50
2023-04-26T03:14:51.460Z,0.40
2023-04-26T03:17:18.331Z,0.50
2023-04-26T03:19:45.166Z,0.50
2023-04-26T03:22:16.065Z,0.50
2023-04-26T03:24:43.512Z,0.50
2023-04-26T03:27:11.116Z,0.50
2023-04-26T03:29:37.815Z,0.50
2023-04-26T03:32:06.297Z,0.50
2023-04-26T03:34:33.286Z,0.50
2023-04-26T03:37:00.039Z,0.40
2023-04-26T03:39:26.687Z,0.30
2023-04-26T03:41:53.320Z,0.30
2023-04-26T03:44:20.067Z,0.50
2023-04-26T03:46:46.834Z,0.60
2023-04-26T03:49:13.656Z,0.60
2023-04-26T03:51:40.308Z,0.60
2023-04-26T03:54:06.972Z,0.60
2023-04-26T03:56:33.824Z,0.50
2023-04-26T03:59:01.035Z,0.70
2023-04-26T04:01:28.481Z,0.80
2023-04-26T04:03:55.480Z,0.70
2023-04-26T04:06:22.509Z,0.40
2023-04-26T04:08:50.169Z,0.30
2023-04-26T04:11:17.002Z,0.30
2023-04-26T04:13:43.822Z,0.30
2023-04-26T04:16:10.747Z,0.30
2023-04-26T04:18:37.565Z,0.40
2023-04-26T04:21:04.490Z,0.60
2023-04-26T04:23:31.733Z,0.50
2023-04-26T04:26:00.148Z,0.40
2023-04-26T04:28:27.092Z,0.60
2023-04-26T04:30:53.962Z,0.40
2023-04-26T04:33:20.722Z,0.30
2023-04-26T04:35:47.364Z,0.30
2023-04-26T04:38:14.184Z,0.30
2023-04-26T04:40:41.048Z,0.30
2023-04-26T04:43:07.782Z,0.40
2023-04-26T04:45:35.469Z,0.50
2023-04-26T04:48:05.123Z,0.50
2023-04-26T04:50:32.250Z,0.60
2023-04-26T04:52:59.114Z,0.60
2023-04-26T04:55:25.916Z,0.80
2023-04-26T04:57:53.356Z,0.80
2023-04-26T05:00:20.362Z,0.70
2023-04-26T05:02:54.662Z,0.80
2023-04-26T05:05:21.496Z,0.90
2023-04-26T05:07:48.812Z,0.90
2023-04-26T05:10:16.160Z,1.00
2023-04-26T05:12:42.832Z,0.90
2023-04-26T05:15:10.085Z,0.90
2023-04-26T05:17:36.739Z,1.10
2023-04-26T05:20:13.269Z,1.20
2023-04-26T05:22:40.354Z,1.20
2023-04-26T05:25:08.304Z,1.30
2023-04-26T05:27:36.621Z,1.40
2023-04-26T05:30:22.328Z,1.40
2023-04-26T05:33:07.781Z,1.60
2023-04-26T05:35:40.961Z,1.60
2023-04-26T05:38:07.621Z,1.70
2023-04-26T05:40:34.270Z,1.80
2023-04-26T05:43:01.592Z,1.80
2023-04-26T05:45:28.374Z,1.90
2023-04-26T05:47:55.315Z,1.90
2023-04-26T05:50:22.028Z,2.00
2023-04-26T05:52:48.789Z,2.10
2023-04-26T05:55:15.603Z,2.10
2023-04-26T05:57:42.990Z,2.10
2023-04-26T06:00:11.210Z,2.20
2023-04-26T06:02:41.246Z,2.20
2023-04-26T06:05:13.475Z,2.30
2023-04-26T06:07:41.153Z,2.50
2023-04-26T06:10:08.045Z,2.50
2023-04-26T06:12:34.653Z,2.50
2023-04-26T06:15:01.773Z,2.70
2023-04-26T06:17:29.798Z,2.80
2023-04-26T06:19:56.579Z,2.90
2023-04-26T06:22:23.378Z,3.00
2023-04-26T06:24:50.217Z,3.10
2023-04-26T06:27:17.633Z,3.20
2023-04-26T06:29:47.572Z,3.40
2023-04-26T06:32:17.264Z,3.50
2023-04-26T06:34:45.471Z,3.70
2023-04-26T06:37:12.304Z,4.00
2023-04-26T06:39:42.257Z,4.20
2023-04-26T06:42:09.078Z,4.60
2023-04-26T06:45:14.457Z,4.50
2023-04-26T06:47:41.755Z,4.60
2023-04-26T06:50:09.239Z,4.50
2023-04-26T06:52:35.873Z,4.70
2023-04-26T06:55:03.816Z,4.80
2023-04-26T06:57:30.656Z,4.90
2023-04-26T06:59:58.057Z,4.80
2023-04-26T07:02:25.141Z,4.80
2023-04-26T07:04:52.336Z,4.90
2023-04-26T07:07:19.354Z,5.20
2023-04-26T07:09:46.183Z,5.30
2023-04-26T07:12:13.721Z,5.40
2023-04-26T07:14:41.307Z,5.20
2023-04-26T07:17:08.190Z,5.40
2023-04-26T07:19:35.175Z,5.40
2023-04-26T07:22:02.018Z,5.60
2023-04-26T07:24:28.636Z,5.70
2023-04-26T07:26:55.525Z,5.60
2023-04-26T07:29:22.298Z,5.40
2023-04-26T07:31:49.461Z,5.60
2023-04-26T07:34:16.165Z,5.80
2023-04-26T07:36:43.077Z,5.60
2023-04-26T07:39:10.674Z,5.40
2023-04-26T07:41:37.407Z,5.80
2023-04-26T07:44:04.236Z,6.00
2023-04-26T07:46:32.605Z,6.10
2023-04-26T07:48:59.252Z,6.30
2023-04-26T07:51:27.283Z,6.60
2023-04-26T07:53:55.709Z,7.00
2023-04-26T07:56:24.120Z,6.90
2023-04-26T07:58:51.538Z,6.50
2023-04-26T08:01:18.385Z,6.40
2023-04-26T08:03:45.471Z,6.30
2023-04-26T08:06:12.855Z,6.20
2023-04-26T08:08:44.566Z,6.00
2023-04-26T08:11:11.681Z,5.80
2023-04-26T08:13:38.387Z,5.80
2023-04-26T08:16:05.948Z,5.70
2023-04-26T08:18:33.144Z,5.90
2023-04-26T08:20:59.808Z,6.00
2023-04-26T08:23:26.503Z,6.00
2023-04-26T08:25:53.193Z,6.10
2023-04-26T08:28:20.162Z,6.30
2023-04-26T08:30:46.815Z,6.30
2023-04-26T08:33:14.076Z,6.30
2023-04-26T08:35:41.078Z,6.30
2023-04-26T08:38:07.760Z,6.20
2023-04-26T08:40:36.069Z,6.50
2023-04-26T08:43:02.657Z,6.60
2023-04-26T08:45:29.277Z,6.60
2023-04-26T08:48:05.557Z,6.80
2023-04-26T08:50:34.311Z,7.20
2023-04-26T08:53:01.092Z,7.40
2023-04-26T08:55:28.332Z,7.60
2023-04-26T08:57:55.882Z,7.50
2023-04-26T09:00:23.389Z,7.20
2023-04-26T09:02:52.499Z,7.00
2023-04-26T09:05:23.942Z,7.10
2023-04-26T09:07:53.362Z,7.10
2023-04-26T09:10:21.895Z,7.00
2023-04-26T09:12:53.091Z,6.90
2023-04-26T09:15:25.232Z,7.00
2023-04-26T09:17:52.494Z,7.10
2023-04-26T09:20:21.564Z,7.10
2023-04-26T09:22:49.720Z,7.30
2023-04-26T09:25:27.860Z,7.30
2023-04-26T09:27:54.566Z,7.20
2023-04-26T09:30:22.081Z,7.00
2023-04-26T09:32:55.782Z,6.90
2023-04-26T09:35:35.285Z,6.70
2023-04-26T09:38:12.109Z,6.40
2023-04-26T09:40:50.514Z,6.30
2023-04-26T09:43:19.156Z,6.20
2023-04-26T09:45:56.992Z,6.30
2023-04-26T09:48:26.516Z,6.40
2023-04-26T09:50:55.546Z,6.30
2023-04-26T09:53:37.289Z,6.70
2023-04-26T09:56:19.692Z,7.20
2023-04-26T09:58:58.611Z,7.80
2023-04-26T10:01:26.817Z,8.30
2023-04-26T10:03:55.069Z,8.30
2023-04-26T10:06:21.850Z,8.30
2023-04-26T10:08:48.510Z,8.00
2023-04-26T10:11:15.329Z,7.60
2023-04-26T10:13:42.893Z,7.50
2023-04-26T10:16:10.411Z,7.30
2023-04-26T10:18:37.735Z,7.20
2023-04-26T10:21:19.816Z,7.10
2023-04-26T10:23:48.667Z,6.90
2023-04-26T10:26:53.405Z,6.90
2023-04-26T10:29:21.506Z,6.90
2023-04-26T10:32:06.662Z,6.90
2023-04-26T10:34:34.495Z,6.90
2023-04-26T10:37:18.186Z,7.10
2023-04-26T10:39:46.675Z,7.30
2023-04-26T10:42:30.803Z,7.20
2023-04-26T10:44:58.986Z,7.20
2023-04-26T10:47:35.008Z,7.10
2023-04-26T10:50:05.370Z,7.10
2023-04-26T10:52:33.030Z,7.00
2023-04-26T10:55:00.572Z,6.90
2023-04-26T10:57:48.382Z,6.90
2023-04-26T11:00:41.144Z,6.90
2023-04-26T11:03:11.629Z,6.90
2023-04-26T11:05:48.619Z,6.70
2023-04-26T11:08:16.536Z,6.60
2023-04-26T11:10:46.074Z,6.40
2023-04-26T11:13:12.692Z,6.30
2023-04-26T11:15:39.513Z,6.20
2023-04-26T11:18:06.295Z,6.20
2023-04-26T11:20:34.244Z,6.20
2023-04-26T11:23:01.529Z,6.20
2023-04-26T11:25:31.210Z,6.40
2023-04-26T11:28:02.891Z,6.50
2023-04-26T11:30:31.549Z,6.50
2023-04-26T11:33:02.491Z,6.50
2023-04-26T11:35:29.769Z,6.60
2023-04-26T11:38:03.329Z,6.80
2023-04-26T11:40:33.840Z,6.90
2023-04-26T11:43:05.532Z,6.90
2023-04-26T11:45:34.146Z,7.00
2023-04-26T11:48:06.065Z,7.00
2023-04-26T11:50:34.138Z,7.20
2023-04-26T11:53:05.764Z,7.30
2023-04-26T11:55:36.802Z,7.50
2023-04-26T11:58:11.991Z,7.70
2023-04-26T12:00:56.134Z,8.00
2023-04-26T12:03:23.261Z,8.20
2023-04-26T12:05:56.393Z,8.50
2023-04-26T12:08:27.579Z,8.50
2023-04-26T12:10:54.395Z,8.60
2023-04-26T12:13:21.248Z,8.40
2023-04-26T12:15:48.026Z,8.10
2023-04-26T12:18:14.938Z,8.00
2023-04-26T12:20:43.455Z,8.00
2023-04-26T12:23:13.788Z,7.90
2023-04-26T12:25:42.151Z,7.80
2023-04-26T12:28:13.742Z,7.80
2023-04-26T12:30:41.055Z,7.80
2023-04-26T12:33:16.351Z,7.80
2023-04-26T12:35:44.132Z,7.80
2023-04-26T12:38:12.100Z,7.80
2023-04-26T12:40:39.253Z,7.90
2023-04-26T12:43:06.057Z,8.20
2023-04-26T12:45:32.794Z,8.40
2023-04-26T12:47:59.554Z,8.40
2023-04-26T12:50:26.785Z,8.60
2023-04-26T12:52:53.609Z,8.60
2023-04-26T12:55:20.332Z,8.60
2023-04-26T12:57:46.976Z,8.60
2023-04-26T13:00:16.933Z,8.90
2023-04-26T13:02:44.661Z,9.40
2023-04-26T13:05:11.715Z,9.40
2023-04-26T13:07:39.987Z,9.60
2023-04-26T13:10:08.580Z,9.60
2023-04-26T13:12:36.709Z,9.50
2023-04-26T13:15:04.015Z,9.50
2023-04-26T13:17:31.570Z,9.50
2023-04-26T13:19:58.225Z,9.40
2023-04-26T13:22:24.865Z,9.40
2023-04-26T13:24:51.517Z,9.10
2023-04-26T13:27:18.203Z,9.00
2023-04-26T13:29:44.931Z,8.70
2023-04-26T13:32:11.837Z,8.40
2023-04-26T13:34:40.666Z,8.40
2023-04-26T13:37:07.352Z,8.40
2023-04-26T13:39:33.964Z,8.40
2023-04-26T13:42:01.820Z,8.40
2023-04-26T13:44:28.536Z,8.30
2023-04-26T13:46:59.940Z,8.50
2023-04-26T13:49:27.254Z,8.50
2023-04-26T13:51:54.296Z,8.50
2023-04-26T13:54:25.930Z,8.60
2023-04-26T13:56:53.458Z,8.70
2023-04-26T13:59:20.396Z,8.90
2023-04-26T14:01:47.093Z,9.10
2023-04-26T14:04:14.034Z,9.10
2023-04-26T14:06:40.793Z,9.30
2023-04-26T14:09:08.458Z,9.30
2023-04-26T14:11:35.532Z,9.40
2023-04-26T14:14:02.170Z,9.40
2023-04-26T14:16:28.834Z,9.20
2023-04-26T14:18:55.548Z,9.20
2023-04-26T14:21:22.169Z,9.10
2023-04-26T14:23:48.901Z,9.10
2023-04-26T14:26:16.338Z,9.10
2023-04-26T14:28:43.333Z,9.10
2023-04-26T14:31:10.066Z,9.00
2023-04-26T14:33:36.750Z,8.80
2023-04-26T14:36:04.328Z,8.80
2023-04-26T14:38:31.290Z,8.60
2023-04-26T14:40:57.888Z,8.50
2023-04-26T14:43:24.569Z,8.40
2023-04-26T14:45:51.218Z,8.30
2023-04-26T14:48:18.183Z,8.40
2023-04-26T14:50:45.284Z,8.40
2023-04-26T14:53:11.970Z,8.50
2023-04-26T14:55:38.678Z,8.40
2023-04-26T14:58:05.758Z,8.20
2023-04-26T15:00:32.437Z,8.20
2023-04-26T15:02:59.255Z,8.10
2023-04-26T15:05:26.088Z,8.00
2023-04-26T15:07:52.922Z,7.90
2023-04-26T15:10:19.717Z,7.90
2023-04-26T15:12:46.441Z,7.90
2023-04-26T15:15:13.189Z,7.80
2023-04-26T15:17:39.903Z,7.80
2023-04-26T15:20:07.116Z,7.70
2023-04-26T15:22:35.723Z,7.80
2023-04-26T15:25:04.594Z,7.80
2023-04-26T15:27:31.205Z,7.80
2023-04-26T15:29:58.574Z,7.80
2023-04-26T15:32:25.894Z,7.80
2023-04-26T15:34:52.612Z,7.90
2023-04-26T15:37:19.317Z,8.00
2023-04-26T15:39:47.241Z,8.00
2023-04-26T15:42:13.993Z,8.20
2023-04-26T15:44:40.868Z,8.50
2023-04-26T15:47:07.763Z,8.80
2023-04-26T15:49:34.371Z,8.90
2023-04-26T15:52:01.047Z,9.00
2023-04-26T15:54:27.832Z,9.00
2023-04-26T15:56:55.155Z,8.90
2023-04-26T15:59:21.829Z,9.00
2023-04-26T16:01:48.694Z,9.00
2023-04-26T16:04:15.742Z,9.10
2023-04-26T16:06:42.519Z,9.20
2023-04-26T16:09:23.904Z,9.10
2023-04-26T16:11:52.264Z,8.90
2023-04-26T16:14:18.919Z,8.90
2023-04-26T16:16:45.945Z,8.90
2023-04-26T16:19:12.796Z,8.80
2023-04-26T16:21:40.586Z,8.90
2023-04-26T16:24:09.464Z,8.80
2023-04-26T16:26:36.282Z,8.80
2023-04-26T16:29:04.109Z,8.80
2023-04-26T16:31:32.103Z,8.80
2023-04-26T16:33:59.511Z,8.60
2023-04-26T16:36:27.138Z,8.70
2023-04-26T16:38:54.611Z,8.70
2023-04-26T16:41:22.964Z,8.80
2023-04-26T16:43:52.505Z,8.80
2023-04-26T16:46:19.472Z,8.80
2023-04-26T16:48:46.411Z,8.60
2023-04-26T16:51:13.157Z,8.50
2023-04-26T16:53:39.821Z,8.60
2023-04-26T16:56:07.145Z,8.60
2023-04-26T16:58:33.807Z,8.60
2023-04-26T17:01:00.762Z,8.60
2023-04-26T17:03:28.247Z,8.50
2023-04-26T17:05:55.032Z,8.50
2023-04-26T17:08:21.884Z,8.60
2023-04-26T17:10:48.895Z,8.50
2023-04-26T17:13:15.700Z,8.40
2023-04-26T17:15:43.232Z,8.40
2023-04-26T17:18:11.194Z,8.30
2023-04-26T17:20:38.199Z,8.30
2023-04-26T17:23:05.268Z,8.30
2023-04-26T17:25:32.106Z,8.30
2023-04-26T17:27:59.900Z,8.40
2023-04-26T17:30:26.728Z,8.40
2023-04-26T17:32:53.413Z,8.30
2023-04-26T17:35:20.367Z,8.30
2023-04-26T17:37:49.626Z,8.10
2023-04-26T17:40:17.860Z,8.10
2023-04-26T17:42:44.747Z,8.10
2023-04-26T17:45:14.151Z,8.00
2023-04-26T17:47:42.255Z,8.00
2023-04-26T17:50:09.502Z,8.00
2023-04-26T17:52:36.796Z,8.10
2023-04-26T17:55:05.630Z,8.10
2023-04-26T17:57:32.211Z,8.10
2023-04-26T17:59:58.880Z,8.00
2023-04-26T18:02:25.778Z,7.90
2023-04-26T18:04:53.436Z,7.90
2023-04-26T18:07:20.377Z,7.80
2023-04-26T18:09:46.974Z,7.80
2023-04-26T18:12:13.616Z,7.70
2023-04-26T18:14:44.433Z,7.60
2023-04-26T18:17:12.646Z,7.50
2023-04-26T18:19:39.830Z,7.40
2023-04-26T18:22:07.034Z,7.30
2023-04-26T18:24:36.636Z,7.20
2023-04-26T18:27:03.488Z,7.10
2023-04-26T18:29:30.525Z,7.00
2023-04-26T18:31:57.321Z,6.90
2023-04-26T18:34:24.124Z,6.70
2023-04-26T18:36:50.867Z,6.70
2023-04-26T18:39:17.847Z,6.50
2023-04-26T18:41:44.501Z,6.40
2023-04-26T18:44:15.111Z,6.30
2023-04-26T18:46:42.848Z,6.10
2023-04-26T18:49:09.738Z,5.90
2023-04-26T18:51:36.532Z,5.70
2023-04-26T18:54:03.386Z,5.60
2023-04-26T18:56:31.292Z,5.50
2023-04-26T18:58:57.941Z,5.30
2023-04-26T19:01:24.666Z,5.20
2023-04-26T19:03:51.500Z,5.10
2023-04-26T19:06:18.238Z,5.00
2023-04-26T19:08:44.925Z,4.80
2023-04-26T19:11:12.326Z,4.80
2023-04-26T19:13:40.094Z,4.80
2023-04-26T19:16:07.996Z,4.70
2023-04-26T19:18:40.360Z,4.50
2023-04-26T19:21:08.136Z,4.40
2023-04-26T19:23:35.089Z,4.10
2023-04-26T19:26:07.525Z,4.10
2023-04-26T19:28:35.087Z,3.90
2023-04-26T19:31:01.850Z,3.70
2023-04-26T19:33:28.796Z,3.70
2023-04-26T19:35:58.156Z,3.70
2023-04-26T19:38:25.559Z,3.50
2023-04-26T19:40:52.822Z,3.50
2023-04-26T19:43:19.585Z,3.40
2023-04-26T19:45:46.477Z,3.30
2023-04-26T19:48:13.308Z,3.30
2023-04-26T19:50:43.796Z,3.20
2023-04-26T19:53:12.824Z,3.20
2023-04-26T19:55:40.893Z,3.00
2023-04-26T19:58:08.248Z,2.80
2023-04-26T20:00:39.734Z,2.70
2023-04-26T20:03:06.887Z,2.70
2023-04-26T20:05:33.925Z,2.80
2023-04-26T20:08:01.276Z,2.70
2023-04-26T20:10:31.807Z,2.70
2023-04-26T20:12:59.240Z,2.60
2023-04-26T20:15:26.432Z,2.50
2023-04-26T20:17:54.247Z,2.40
2023-04-26T20:20:21.150Z,2.40
2023-04-26T20:22:47.747Z,2.40
2023-04-26T20:25:14.498Z,2.40
2023-04-26T20:27:41.327Z,2.30
2023-04-26T20:30:08.590Z,2.20
2023-04-26T20:32:35.326Z,2.10
2023-04-26T20:35:02.047Z,2.10
2023-04-26T20:37:28.729Z,2.20
2023-04-26T20:39:55.563Z,2.00
2023-04-26T20:42:22.942Z,2.10
2023-04-26T20:44:49.633Z,2.10
2023-04-26T20:47:16.496Z,2.10
2023-04-26T20:49:43.102Z,2.00
2023-04-26T20:52:09.925Z,2.10
2023-04-26T20:54:36.528Z,1.90
2023-04-26T20:57:03.642Z,1.80
2023-04-26T20:59:30.669Z,1.70
2023-04-26T21:01:57.316Z,1.60
2023-04-26T21:04:24.517Z,1.60
2023-04-26T21:06:51.362Z,1.60
2023-04-26T21:09:18.036Z,1.60
2023-04-26T21:11:44.688Z,1.60
2023-04-26T21:14:13.524Z,1.70
2023-04-26T21:16:40.470Z,1.60
2023-04-26T21:19:08.007Z,1.40
2023-04-26T21:21:35.277Z,1.30
2023-04-26T21:24:02.741Z,1.20
2023-04-26T21:26:29.532Z,1.20
2023-04-26T21:28:56.204Z,1.10
2023-04-26T21:31:23.346Z,1.00
2023-04-26T21:33:49.997Z,1.20
2023-04-26T21:36:16.709Z,1.10
2023-04-26T21:38:43.343Z,1.10
2023-04-26T21:41:10.583Z,1.20
2023-04-26T21:43:37.194Z,1.20
2023-04-26T21:46:03.923Z,1.20
2023-04-26T21:48:30.693Z,1.20
2023-04-26T21:50:58.090Z,1.10
2023-04-26T21:53:24.752Z,1.10
2023-04-26T21:55:52.990Z,1.10
2023-04-26T21:58:23.183Z,1.10
2023-04-26T22:00:50.675Z,1.10
2023-04-26T22:03:18.213Z,1.10
2023-04-26T22:05:45.147Z,1.10
2023-04-26T22:08:11.779Z,1.00
2023-04-26T22:10:38.425Z,1.00
2023-04-26T22:13:05.301Z,1.00
2023-04-26T22:15:32.069Z,1.00
2023-04-26T22:17:58.911Z,1.10
2023-04-26T22:20:26.356Z,1.10
2023-04-26T22:22:53.516Z,1.20
2023-04-26T22:25:20.273Z,1.10
2023-04-26T22:27:48.012Z,1.00
2023-04-26T22:30:25.039Z,1.00
2023-04-26T22:32:54.756Z,1.00
2023-04-26T22:35:22.858Z,1.00
2023-04-26T22:37:49.845Z,0.90
2023-04-26T22:40:17.378Z,1.00
2023-04-26T22:42:44.520Z,1.20
2023-04-26T22:45:12.661Z,1.30
2023-04-26T22:47:40.686Z,1.40
2023-04-26T22:50:08.282Z,1.30
2023-04-26T22:52:35.718Z,1.30
2023-04-26T22:55:02.421Z,1.30
2023-04-26T22:57:29.902Z,1.30
2023-04-26T22:59:57.004Z,1.40
2023-04-26T23:02:23.942Z,1.40
2023-04-26T23:04:50.799Z,1.40
2023-04-26T23:07:17.427Z,1.50
2023-04-26T23:09:44.226Z,1.60
2023-04-26T23:12:11.491Z,1.40
2023-04-26T23:14:38.084Z,1.30
2023-04-26T23:17:05.590Z,1.20
2023-04-26T23:19:33.078Z,1.20
2023-04-26T23:21:59.895Z,1.20
2023-04-26T23:24:26.735Z,1.10
2023-04-26T23:26:53.399Z,1.00
2023-04-26T23:29:20.128Z,1.10
2023-04-26T23:31:46.886Z,1.10
2023-04-26T23:34:13.860Z,1.00
2023-04-26T23:36:40.992Z,1.00
2023-04-26T23:39:07.615Z,1.20
2023-04-26T23:41:34.332Z,1.10
2023-04-26T23:44:00.954Z,1.00
2023-04-26T23:46:27.688Z,1.00
2023-04-26T23:48:54.289Z,1.00
2023-04-26T23:51:20.916Z,1.00
2023-04-26T23:53:47.494Z,1.10
2023-04-26T23:56:14.133Z,0.90
2023-04-26T23:58:41.004Z,0.80
